Time;durP1;ratioP1;P1;durP2;ratioP2;P2;SDS_P1;SDS_P2;PMS_P1;PMS_P2;Temp;Humidity;BMP_temperature;BMP_pressure;BME280_temperature;BME280_humidity;BME280_pressure;Samples;Min_cycle;Max_cycle;Signal;HPM_P1;HPM_P2
2022/01/20 00:01:42;;;;;;;8.47;5.80;;;;;;;;;;4937643;29;20213;-79
2022/01/20 00:04:20;;;;;;;7.13;5.50;;;;;;;;;;4937254;29;20184;-79
2022/01/20 00:07:24;;;;;;;7.83;5.57;;;;;;;;;;4938420;29;20178;-79
2022/01/20 00:23:12;;;;;;;7.83;5.47;;;;;;;;;;4944104;29;20196;-79
2022/01/20 00:28:20;;;;;;;9.43;6.33;;;;;;;;;;4943168;29;20221;-80
2022/01/20 00:30:53;;;;;;;7.23;5.47;;;;;;;;;;4941002;29;20183;-79
2022/01/20 00:33:36;;;;;;;9.80;5.80;;;;;;;;;;4958208;29;20333;-80
2022/01/20 00:38:34;;;;;;;7.10;5.50;;;;;;;;;;4958013;29;20226;-80
2022/01/20 00:41:01;;;;;;;7.57;5.37;;;;;;;;;;4940811;29;20229;-79
2022/01/20 00:43:27;;;;;;;7.47;5.50;;;;;;;;;;4924985;29;20187;-79
2022/01/20 00:45:53;;;;;;;8.33;5.30;;;;;;;;;;4940442;28;20179;-79
2022/01/20 00:48:20;;;;;;;7.87;5.47;;;;;;;;;;4940397;29;20210;-79
2022/01/20 00:50:46;;;;;;;7.27;5.07;;;;;;;;;;4940636;29;20230;-79
2022/01/20 00:53:12;;;;;;;8.03;5.60;;;;;;;;;;4940274;29;20195;-79
2022/01/20 00:55:39;;;;;;;8.77;5.70;;;;;;;;;;4940393;29;20188;-79
2022/01/20 00:58:05;;;;;;;7.10;5.07;;;;;;;;;;4940309;28;20303;-79
2022/01/20 01:00:31;;;;;;;7.10;4.77;;;;;;;;;;4940501;29;20183;-79
2022/01/20 01:02:57;;;;;;;7.23;4.83;;;;;;;;;;4940314;29;20185;-79
2022/01/20 01:05:24;;;;;;;6.00;4.40;;;;;;;;;;4924142;29;20186;-79
2022/01/20 01:07:54;;;;;;;7.47;4.40;;;;;;;;;;4940214;29;20250;-80
2022/01/20 01:10:25;;;;;;;6.83;4.20;;;;;;;;;;4939985;29;20206;-79
2022/01/20 01:15:26;;;;;;;6.60;4.33;;;;;;;;;;4956995;28;20218;-79
2022/01/20 01:23:32;;;;;;;6.87;3.67;;;;;;;;;;4929238;29;20175;-79
2022/01/20 01:25:59;;;;;;;5.87;3.70;;;;;;;;;;4939606;28;20183;-79
2022/01/20 01:28:27;;;;;;;5.10;3.20;;;;;;;;;;4939618;29;20222;-80
2022/01/20 01:33:35;;;;;;;5.27;3.43;;;;;;;;;;4956840;29;20186;-79
2022/01/20 01:36:04;;;;;;;5.67;3.63;;;;;;;;;;4939403;29;20232;-79
2022/01/20 01:38:35;;;;;;;6.93;3.70;;;;;;;;;;4939334;29;20215;-79
2022/01/20 01:41:03;;;;;;;6.07;3.80;;;;;;;;;;4924510;29;20179;-79
2022/01/20 01:43:31;;;;;;;6.60;3.70;;;;;;;;;;4939443;29;20179;-79
2022/01/20 01:46:00;;;;;;;8.50;3.33;;;;;;;;;;4939078;29;20191;-79
2022/01/20 01:48:26;;;;;;;6.10;3.70;;;;;;;;;;4923798;29;20207;-79
2022/01/20 01:50:52;;;;;;;5.77;3.53;;;;;;;;;;4923616;29;20230;-79
2022/01/20 01:53:18;;;;;;;6.33;3.43;;;;;;;;;;4938930;28;20593;-79
2022/01/20 01:55:44;;;;;;;7.70;3.60;;;;;;;;;;4923759;29;20710;-79
2022/01/20 01:58:10;;;;;;;7.73;3.47;;;;;;;;;;4938933;29;20559;-79
2022/01/20 02:00:37;;;;;;;5.80;3.37;;;;;;;;;;4939499;29;20311;-79
2022/01/20 02:03:03;;;;;;;5.97;3.10;;;;;;;;;;4939229;28;20274;-79
2022/01/20 02:05:30;;;;;;;5.60;3.17;;;;;;;;;;4923298;29;20184;-79
2022/01/20 02:08:22;;;;;;;6.27;3.00;;;;;;;;;;4923550;29;20218;-79
2022/01/20 02:18:57;;;;;;;6.80;3.30;;;;;;;;;;4956217;29;20282;-79
2022/01/20 02:21:23;;;;;;;5.57;3.10;;;;;;;;;;4923564;29;20190;-79
2022/01/20 02:23:49;;;;;;;4.70;3.03;;;;;;;;;;4922926;29;20184;-79
2022/01/20 02:26:15;;;;;;;9.23;2.90;;;;;;;;;;4938913;29;20257;-79
2022/01/20 02:28:41;;;;;;;5.27;3.17;;;;;;;;;;4938246;28;20260;-79
2022/01/20 02:31:07;;;;;;;6.93;3.40;;;;;;;;;;4923011;29;20220;-79
2022/01/20 02:33:34;;;;;;;4.77;2.90;;;;;;;;;;4955882;29;20201;-79
2022/01/20 02:36:03;;;;;;;4.10;2.63;;;;;;;;;;4938896;29;20191;-79
2022/01/20 02:39:09;;;;;;;5.57;3.33;;;;;;;;;;4922860;29;20218;-79
2022/01/20 02:46:50;;;;;;;9.40;4.43;;;;;;;;;;4941797;29;20226;-79
2022/01/20 02:49:18;;;;;;;12.83;4.87;;;;;;;;;;4922902;29;20302;-79
2022/01/20 02:51:51;;;;;;;9.80;4.80;;;;;;;;;;4955802;29;20203;-79
2022/01/20 02:54:17;;;;;;;11.37;5.70;;;;;;;;;;4938235;29;20192;-79
2022/01/20 02:56:44;;;;;;;13.00;6.30;;;;;;;;;;4938173;29;20279;-80
2022/01/20 02:59:10;;;;;;;11.10;6.00;;;;;;;;;;4922490;29;20220;-79
2022/01/20 03:01:36;;;;;;;11.20;5.93;;;;;;;;;;4922825;29;20176;-80
2022/01/20 03:04:03;;;;;;;11.83;5.73;;;;;;;;;;4938002;29;20296;-79
2022/01/20 03:06:29;;;;;;;7.30;4.80;;;;;;;;;;4938654;29;20181;-79
2022/01/20 03:08:55;;;;;;;9.53;5.13;;;;;;;;;;4922220;29;20307;-79
2022/01/20 03:11:21;;;;;;;7.67;4.03;;;;;;;;;;4938094;28;20246;-79
2022/01/20 03:13:47;;;;;;;6.93;3.73;;;;;;;;;;4937843;28;20182;-79
2022/01/20 03:16:13;;;;;;;8.07;4.30;;;;;;;;;;4922384;29;20196;-79
2022/01/20 03:18:39;;;;;;;7.50;4.20;;;;;;;;;;4922216;29;20246;-79
2022/01/20 03:21:05;;;;;;;5.77;3.83;;;;;;;;;;4922210;29;20186;-79
2022/01/20 03:23:31;;;;;;;6.87;4.20;;;;;;;;;;4922296;29;20283;-79
2022/01/20 03:25:57;;;;;;;6.13;3.87;;;;;;;;;;4922344;29;20212;-79
2022/01/20 03:28:23;;;;;;;6.30;4.23;;;;;;;;;;4957588;23;20257;-82
2022/01/20 03:30:49;;;;;;;7.23;4.07;;;;;;;;;;4936227;29;20180;-82
2022/01/20 03:33:15;;;;;;;6.27;4.00;;;;;;;;;;4934777;29;20182;-82
2022/01/20 03:35:41;;;;;;;6.43;3.73;;;;;;;;;;4919418;29;20788;-82
2022/01/20 03:38:08;;;;;;;8.43;4.63;;;;;;;;;;4934463;29;20262;-82
2022/01/20 03:40:34;;;;;;;6.67;3.80;;;;;;;;;;4934859;29;20544;-82
2022/01/20 03:43:00;;;;;;;6.07;3.80;;;;;;;;;;4934750;29;20185;-82
2022/01/20 03:45:28;;;;;;;7.30;4.00;;;;;;;;;;4934402;29;20223;-82
2022/01/20 03:47:58;;;;;;;10.27;3.80;;;;;;;;;;4918950;29;20203;-82
2022/01/20 03:53:09;;;;;;;7.13;3.80;;;;;;;;;;4935029;29;20250;-82
2022/01/20 03:55:35;;;;;;;10.53;3.70;;;;;;;;;;4918826;29;20207;-82
2022/01/20 03:58:01;;;;;;;8.73;3.63;;;;;;;;;;4918769;29;20218;-82
2022/01/20 04:00:27;;;;;;;6.93;3.60;;;;;;;;;;4934598;29;20231;-82
2022/01/20 04:02:53;;;;;;;7.80;3.10;;;;;;;;;;4919034;29;20196;-82
2022/01/20 04:05:19;;;;;;;6.70;3.03;;;;;;;;;;4934389;29;20725;-82
2022/01/20 04:07:45;;;;;;;9.97;3.77;;;;;;;;;;4918853;29;20183;-82
2022/01/20 04:10:11;;;;;;;7.00;3.30;;;;;;;;;;4918650;29;20220;-82
2022/01/20 04:12:37;;;;;;;7.83;3.80;;;;;;;;;;4919112;29;20192;-82
2022/01/20 04:15:07;;;;;;;7.67;3.07;;;;;;;;;;4918199;29;20278;-82
2022/01/20 04:17:35;;;;;;;7.23;2.60;;;;;;;;;;4934494;29;20175;-82
2022/01/20 04:20:03;;;;;;;7.03;2.70;;;;;;;;;;4934288;29;20272;-82
2022/01/20 04:22:30;;;;;;;5.83;2.67;;;;;;;;;;4933967;29;20192;-82
2022/01/20 04:24:56;;;;;;;7.40;2.67;;;;;;;;;;4934303;29;20188;-82
2022/01/20 04:27:22;;;;;;;6.67;3.00;;;;;;;;;;4933947;29;20192;-82
2022/01/20 04:29:48;;;;;;;5.70;2.27;;;;;;;;;;4918233;29;20229;-82
2022/01/20 04:32:14;;;;;;;5.07;2.67;;;;;;;;;;4918607;29;20186;-82
2022/01/20 04:34:40;;;;;;;7.63;2.70;;;;;;;;;;4933994;29;20179;-82
2022/01/20 04:37:08;;;;;;;6.20;2.67;;;;;;;;;;4934175;29;20182;-81
2022/01/20 04:39:39;;;;;;;8.43;2.40;;;;;;;;;;4933944;29;20222;-82
2022/01/20 04:42:05;;;;;;;6.00;2.57;;;;;;;;;;4934049;29;20584;-82
2022/01/20 04:44:41;;;;;;;5.67;2.30;;;;;;;;;;4918354;29;20273;-82
2022/01/20 04:57:53;;;;;;;8.20;2.57;;;;;;;;;;4937955;29;20309;-82
2022/01/20 05:00:19;;;;;;;6.47;2.27;;;;;;;;;;4921910;29;20260;-82
2022/01/20 05:02:45;;;;;;;5.53;2.13;;;;;;;;;;4937054;29;20266;-82
2022/01/20 05:05:11;;;;;;;9.63;2.60;;;;;;;;;;4937161;29;20188;-82
2022/01/20 05:07:38;;;;;;;9.90;2.57;;;;;;;;;;4921782;29;20226;-82
2022/01/20 05:10:07;;;;;;;8.53;2.40;;;;;;;;;;4937447;29;20298;-82
2022/01/20 05:13:02;;;;;;;7.93;2.70;;;;;;;;;;4921743;29;20194;-82
2022/01/20 05:15:23;;;;;;;5.87;3.00;;;;;;;;;;4938129;29;20210;-82
2022/01/20 05:17:49;;;;;;;11.60;3.10;;;;;;;;;;4921374;29;20630;-82
2022/01/20 05:20:15;;;;;;;5.33;2.43;;;;;;;;;;4921380;29;20186;-82
2022/01/20 05:22:41;;;;;;;11.50;3.50;;;;;;;;;;4921303;29;20245;-81
2022/01/20 05:25:07;;;;;;;8.20;3.37;;;;;;;;;;4936967;29;20179;-82
2022/01/20 05:27:34;;;;;;;10.73;3.63;;;;;;;;;;4937085;29;20212;-82
2022/01/20 05:30:00;;;;;;;7.57;2.90;;;;;;;;;;4936873;29;20226;-82
2022/01/20 05:32:27;;;;;;;11.07;2.93;;;;;;;;;;4937034;29;20187;-82
2022/01/20 05:34:53;;;;;;;9.27;3.33;;;;;;;;;;4936517;29;20240;-82
2022/01/20 05:37:19;;;;;;;11.43;3.67;;;;;;;;;;4936911;29;20241;-82
2022/01/20 05:39:45;;;;;;;14.03;3.93;;;;;;;;;;4936459;29;20588;-82
2022/01/20 05:42:11;;;;;;;11.50;4.00;;;;;;;;;;4921038;29;20193;-82
2022/01/20 05:44:37;;;;;;;8.90;4.03;;;;;;;;;;4936080;29;20187;-82
2022/01/20 05:47:09;;;;;;;9.07;3.90;;;;;;;;;;4936471;29;20184;-82
2022/01/20 05:49:35;;;;;;;11.23;4.40;;;;;;;;;;4936597;29;20199;-82
2022/01/20 05:52:01;;;;;;;13.63;4.40;;;;;;;;;;4936534;29;20210;-82
2022/01/20 05:54:27;;;;;;;10.17;3.57;;;;;;;;;;4920241;29;20190;-82
2022/01/20 05:56:53;;;;;;;11.23;3.73;;;;;;;;;;4923101;29;20186;-81
2022/01/20 05:59:19;;;;;;;13.27;4.17;;;;;;;;;;4920032;29;20222;-81
2022/01/20 06:01:52;;;;;;;9.87;3.67;;;;;;;;;;4935942;29;20178;-81
2022/01/20 06:04:18;;;;;;;11.10;3.90;;;;;;;;;;4934918;29;20244;-81
2022/01/20 06:06:44;;;;;;;11.47;4.53;;;;;;;;;;4935665;29;20178;-81
2022/01/20 06:09:10;;;;;;;13.13;4.33;;;;;;;;;;4935461;29;20302;-78
2022/01/20 06:11:36;;;;;;;8.70;3.67;;;;;;;;;;4935598;29;20183;-78
2022/01/20 06:14:03;;;;;;;12.90;6.47;;;;;;;;;;4935152;29;20211;-78
2022/01/20 06:16:31;;;;;;;10.17;4.20;;;;;;;;;;4904284;29;20620;-78
2022/01/20 06:18:57;;;;;;;9.57;3.97;;;;;;;;;;4919430;29;20218;-78
2022/01/20 06:21:24;;;;;;;13.97;4.07;;;;;;;;;;4934892;29;20267;-78
2022/01/20 06:23:50;;;;;;;10.67;3.97;;;;;;;;;;4919275;29;20234;-78
2022/01/20 06:26:16;;;;;;;11.43;3.50;;;;;;;;;;4919329;29;20185;-77
2022/01/20 06:28:42;;;;;;;10.37;4.73;;;;;;;;;;4934937;29;20222;-78
2022/01/20 06:31:09;;;;;;;14.77;5.10;;;;;;;;;;4935142;29;20186;-78
2022/01/20 06:33:35;;;;;;;9.13;3.90;;;;;;;;;;4934827;29;20185;-78
2022/01/20 06:36:01;;;;;;;11.70;4.33;;;;;;;;;;4934860;29;20188;-78
2022/01/20 06:38:27;;;;;;;7.53;3.50;;;;;;;;;;4934700;29;20212;-78
2022/01/20 06:40:54;;;;;;;10.03;3.90;;;;;;;;;;4934657;29;20195;-78
2022/01/20 06:43:20;;;;;;;6.70;3.50;;;;;;;;;;4934885;29;20227;-78
2022/01/20 06:45:46;;;;;;;7.93;3.60;;;;;;;;;;4918925;29;20186;-78
2022/01/20 06:48:12;;;;;;;8.47;3.70;;;;;;;;;;4934640;29;20662;-77
2022/01/20 06:50:38;;;;;;;11.30;3.87;;;;;;;;;;4919191;29;20183;-79
2022/01/20 06:53:04;;;;;;;8.60;3.50;;;;;;;;;;4934740;29;20187;-78
2022/01/20 06:55:30;;;;;;;9.13;3.80;;;;;;;;;;4934269;29;20197;-77
2022/01/20 06:57:57;;;;;;;10.60;4.20;;;;;;;;;;4934502;29;20207;-78
2022/01/20 07:00:24;;;;;;;12.53;3.87;;;;;;;;;;4934706;29;20196;-78
2022/01/20 07:02:51;;;;;;;9.40;3.40;;;;;;;;;;4934469;29;20238;-76
2022/01/20 07:05:17;;;;;;;11.30;4.20;;;;;;;;;;4918562;29;20553;-76
2022/01/20 07:07:44;;;;;;;12.07;4.07;;;;;;;;;;4918523;29;20211;-75
2022/01/20 07:10:11;;;;;;;5.10;2.60;;;;;;;;;;4934464;29;20181;-75
2022/01/20 07:12:37;;;;;;;8.10;3.83;;;;;;;;;;4918556;29;20191;-75
2022/01/20 07:15:03;;;;;;;8.13;3.53;;;;;;;;;;4933917;29;20629;-75
2022/01/20 07:17:29;;;;;;;10.20;3.13;;;;;;;;;;4934341;29;20584;-76
2022/01/20 07:19:55;;;;;;;6.63;3.17;;;;;;;;;;4918443;29;20218;-77
2022/01/20 07:22:22;;;;;;;8.93;3.50;;;;;;;;;;4918035;29;20190;-75
2022/01/20 07:24:48;;;;;;;11.23;4.13;;;;;;;;;;4934244;29;20183;-76
2022/01/20 07:27:14;;;;;;;9.13;3.20;;;;;;;;;;4934253;29;20181;-77
2022/01/20 07:29:40;;;;;;;6.53;3.10;;;;;;;;;;4919063;29;20682;-77
2022/01/20 07:32:07;;;;;;;7.87;3.30;;;;;;;;;;4918676;29;20191;-76
2022/01/20 07:34:34;;;;;;;8.17;3.20;;;;;;;;;;4918130;29;20755;-76
2022/01/20 07:37:00;;;;;;;6.77;3.23;;;;;;;;;;4933872;29;20186;-76
2022/01/20 07:39:26;;;;;;;5.63;3.77;;;;;;;;;;4933725;29;20273;-76
2022/01/20 07:41:52;;;;;;;4.97;2.67;;;;;;;;;;4918460;29;20181;-75
2022/01/20 07:44:19;;;;;;;12.60;4.70;;;;;;;;;;4918110;29;20304;-76
2022/01/20 07:46:46;;;;;;;7.00;2.93;;;;;;;;;;4918334;29;20183;-75
2022/01/20 07:49:12;;;;;;;8.03;2.63;;;;;;;;;;4933916;29;20235;-75
2022/01/20 07:51:38;;;;;;;5.43;2.53;;;;;;;;;;4933627;29;20181;-76
2022/01/20 07:54:04;;;;;;;7.33;3.13;;;;;;;;;;4933730;29;20185;-76
2022/01/20 07:56:30;;;;;;;7.10;2.93;;;;;;;;;;4918043;29;20756;-75
2022/01/20 07:58:56;;;;;;;9.53;3.27;;;;;;;;;;4933345;29;20209;-75
2022/01/20 08:01:24;;;;;;;6.47;3.07;;;;;;;;;;4918118;29;20178;-76
2022/01/20 08:03:51;;;;;;;5.80;3.00;;;;;;;;;;4917998;29;20640;-76
2022/01/20 08:06:17;;;;;;;8.53;4.03;;;;;;;;;;4933673;29;20264;-75
2022/01/20 08:08:43;;;;;;;5.90;1.87;;;;;;;;;;4917938;29;20316;-76
2022/01/20 08:11:09;;;;;;;5.70;3.33;;;;;;;;;;4933604;29;20177;-76
2022/01/20 08:13:35;;;;;;;2.10;0.93;;;;;;;;;;4917857;29;20244;-76
2022/01/20 08:16:01;;;;;;;6.23;1.27;;;;;;;;;;4917671;29;20185;-76
2022/01/20 08:18:27;;;;;;;3.67;1.17;;;;;;;;;;4917552;29;20215;-75
2022/01/20 08:20:54;;;;;;;2.43;1.07;;;;;;;;;;4917596;29;20192;-76
2022/01/20 08:23:20;;;;;;;4.00;1.13;;;;;;;;;;4917793;29;20190;-76
2022/01/20 08:25:46;;;;;;;2.80;1.37;;;;;;;;;;4917103;29;20280;-76
2022/01/20 08:28:12;;;;;;;3.87;1.17;;;;;;;;;;4943182;28;20248;-75
2022/01/20 08:30:39;;;;;;;3.20;1.40;;;;;;;;;;4937176;29;20185;-76
2022/01/20 08:33:05;;;;;;;5.83;1.30;;;;;;;;;;4937171;29;20181;-75
2022/01/20 08:35:32;;;;;;;3.77;1.20;;;;;;;;;;4937009;29;20221;-76
2022/01/20 08:37:59;;;;;;;4.93;1.20;;;;;;;;;;4936956;29;20216;-76
2022/01/20 08:40:26;;;;;;;4.60;1.60;;;;;;;;;;4938306;29;20637;-76
2022/01/20 08:42:52;;;;;;;3.13;1.20;;;;;;;;;;4921634;29;20178;-76
2022/01/20 08:45:21;;;;;;;4.43;1.53;;;;;;;;;;4936596;29;20192;-75
2022/01/20 08:47:49;;;;;;;3.13;1.37;;;;;;;;;;4936665;29;20178;-75
2022/01/20 08:50:16;;;;;;;2.73;1.50;;;;;;;;;;4921215;29;20166;-76
2022/01/20 08:52:42;;;;;;;4.77;1.17;;;;;;;;;;4937120;29;20177;-76
2022/01/20 08:55:08;;;;;;;2.00;1.03;;;;;;;;;;4937784;29;20186;-76
2022/01/20 08:57:34;;;;;;;4.23;1.30;;;;;;;;;;4936623;29;20173;-76
2022/01/20 09:00:00;;;;;;;4.63;1.30;;;;;;;;;;4920887;29;20304;-76
2022/01/20 09:02:27;;;;;;;4.40;1.57;;;;;;;;;;4920822;29;20293;-76
2022/01/20 09:04:53;;;;;;;4.10;1.33;;;;;;;;;;4920618;29;20193;-76
2022/01/20 09:07:19;;;;;;;6.00;1.50;;;;;;;;;;4920711;29;20182;-76
2022/01/20 09:09:47;;;;;;;3.70;1.47;;;;;;;;;;4936382;29;20204;-76
2022/01/20 09:12:16;;;;;;;6.27;1.60;;;;;;;;;;4936510;29;20185;-76
2022/01/20 09:17:30;;;;;;;7.60;1.70;;;;;;;;;;4937792;29;20645;-76
2022/01/20 09:19:57;;;;;;;5.57;1.10;;;;;;;;;;4936234;29;20692;-75
2022/01/20 09:22:23;;;;;;;5.37;1.47;;;;;;;;;;4936164;29;20177;-76
2022/01/20 09:24:49;;;;;;;4.33;1.40;;;;;;;;;;4920332;29;20182;-75
2022/01/20 09:27:15;;;;;;;5.57;1.50;;;;;;;;;;4936055;29;20181;-75
2022/01/20 09:29:42;;;;;;;4.17;1.73;;;;;;;;;;4916771;23;20763;-76
2022/01/20 09:32:12;;;;;;;6.77;1.60;;;;;;;;;;4920247;29;20171;-76
2022/01/20 09:34:38;;;;;;;5.30;1.50;;;;;;;;;;4920158;29;20181;-76
2022/01/20 09:37:04;;;;;;;4.97;1.70;;;;;;;;;;4920187;29;20182;-76
2022/01/20 09:39:30;;;;;;;5.13;1.20;;;;;;;;;;4920000;29;20228;-75
2022/01/20 09:41:58;;;;;;;6.83;1.43;;;;;;;;;;4919985;29;20277;-76
2022/01/20 09:44:24;;;;;;;4.10;1.23;;;;;;;;;;4920110;29;20633;-75
2022/01/20 09:46:50;;;;;;;5.13;1.30;;;;;;;;;;4920133;29;20216;-75
2022/01/20 09:49:16;;;;;;;7.17;1.33;;;;;;;;;;4919767;29;20622;-75
2022/01/20 09:51:43;;;;;;;7.17;1.57;;;;;;;;;;4904412;29;20780;-76
2022/01/20 09:54:09;;;;;;;6.27;1.33;;;;;;;;;;4919974;29;20185;-76
2022/01/20 09:56:36;;;;;;;6.17;1.50;;;;;;;;;;4919835;29;20174;-76
2022/01/20 09:59:02;;;;;;;6.07;2.00;;;;;;;;;;4919551;29;20216;-76
2022/01/20 10:01:38;;;;;;;4.10;1.23;;;;;;;;;;4936769;29;20186;-76
2022/01/20 10:04:04;;;;;;;7.97;1.47;;;;;;;;;;4919599;29;20257;-76
2022/01/20 10:06:30;;;;;;;6.27;1.97;;;;;;;;;;4904006;29;20193;-76
2022/01/20 10:09:00;;;;;;;4.07;1.43;;;;;;;;;;4919410;29;20201;-76
2022/01/20 10:11:26;;;;;;;6.17;1.50;;;;;;;;;;4919782;29;20496;-77
2022/01/20 10:13:55;;;;;;;5.07;1.60;;;;;;;;;;4903831;29;20210;-76
2022/01/20 10:16:21;;;;;;;5.70;1.70;;;;;;;;;;4919456;29;20637;-77
2022/01/20 10:18:49;;;;;;;7.17;1.50;;;;;;;;;;4903798;29;20680;-77
2022/01/20 10:21:15;;;;;;;5.27;1.60;;;;;;;;;;4919290;29;20642;-77
2022/01/20 10:23:42;;;;;;;7.50;1.80;;;;;;;;;;4903320;29;20186;-76
2022/01/20 10:26:24;;;;;;;7.97;1.50;;;;;;;;;;4903965;29;20185;-77
2022/01/20 10:28:52;;;;;;;8.07;1.73;;;;;;;;;;4936230;29;20213;-77
2022/01/20 10:31:19;;;;;;;5.07;1.40;;;;;;;;;;4919222;29;20218;-77
2022/01/20 10:33:47;;;;;;;4.37;1.33;;;;;;;;;;4903487;29;20720;-77
2022/01/20 10:36:14;;;;;;;7.27;1.53;;;;;;;;;;4918923;29;20186;-77
2022/01/20 10:38:50;;;;;;;5.33;1.20;;;;;;;;;;4918949;29;20216;-76
2022/01/20 10:41:26;;;;;;;5.40;1.53;;;;;;;;;;4903347;29;20208;-77
2022/01/20 10:43:59;;;;;;;8.70;1.60;;;;;;;;;;4918904;29;20178;-76
2022/01/20 10:46:25;;;;;;;6.17;1.50;;;;;;;;;;4935863;29;20246;-77
2022/01/20 10:48:58;;;;;;;8.13;1.60;;;;;;;;;;4903158;29;20277;-77
2022/01/20 10:51:24;;;;;;;2.27;1.10;;;;;;;;;;4918510;29;20187;-76
2022/01/20 10:54:00;;;;;;;4.93;1.37;;;;;;;;;;4918745;29;20188;-76
2022/01/20 10:56:26;;;;;;;5.13;1.67;;;;;;;;;;4903012;29;20237;-77
2022/01/20 10:59:05;;;;;;;9.97;1.60;;;;;;;;;;4902911;29;20221;-76
2022/01/20 11:01:31;;;;;;;4.93;1.40;;;;;;;;;;4918884;29;20189;-77
2022/01/20 11:03:58;;;;;;;6.90;1.30;;;;;;;;;;4902906;29;20174;-76
2022/01/20 11:06:24;;;;;;;4.57;1.50;;;;;;;;;;4903027;29;20181;-76
2022/01/20 11:08:51;;;;;;;7.03;1.20;;;;;;;;;;4902950;29;20202;-77
2022/01/20 11:11:18;;;;;;;4.83;1.33;;;;;;;;;;4902911;29;20192;-76
2022/01/20 11:13:44;;;;;;;5.00;1.30;;;;;;;;;;4918199;29;20242;-76
2022/01/20 11:16:10;;;;;;;5.97;1.40;;;;;;;;;;4903037;29;20253;-77
2022/01/20 11:18:37;;;;;;;5.23;1.30;;;;;;;;;;4902502;29;20608;-76
2022/01/20 11:21:05;;;;;;;6.37;1.50;;;;;;;;;;4918508;29;20182;-77
2022/01/20 11:23:42;;;;;;;2.03;0.87;;;;;;;;;;4918216;29;20233;-76
2022/01/20 11:26:08;;;;;;;7.13;1.37;;;;;;;;;;4918196;29;20182;-76
2022/01/20 11:28:35;;;;;;;4.63;1.30;;;;;;;;;;4918021;29;20221;-75
2022/01/20 11:31:04;;;;;;;6.10;1.20;;;;;;;;;;4918383;29;20253;-76
2022/01/20 11:33:34;;;;;;;4.80;1.10;;;;;;;;;;4903020;29;20616;-77
2022/01/20 11:36:00;;;;;;;8.33;1.50;;;;;;;;;;4902675;29;20280;-77
2022/01/20 11:38:43;;;;;;;5.93;1.67;;;;;;;;;;4902297;29;20327;-78
2022/01/20 11:41:09;;;;;;;8.37;1.20;;;;;;;;;;4918196;29;20182;-77
2022/01/20 11:43:37;;;;;;;6.90;1.53;;;;;;;;;;4917769;29;20270;-77
2022/01/20 11:46:11;;;;;;;4.13;1.40;;;;;;;;;;4902525;29;20192;-78
2022/01/20 11:48:48;;;;;;;7.27;1.87;;;;;;;;;;4903001;29;20235;-77
2022/01/20 11:51:17;;;;;;;4.30;1.60;;;;;;;;;;4917984;29;20173;-77
2022/01/20 11:53:54;;;;;;;7.40;1.40;;;;;;;;;;4917928;29;20174;-77
2022/01/20 11:56:27;;;;;;;5.17;1.40;;;;;;;;;;4917851;29;20173;-77
2022/01/20 11:58:53;;;;;;;4.20;1.10;;;;;;;;;;4934818;29;20209;-77
2022/01/20 12:01:20;;;;;;;3.43;1.40;;;;;;;;;;4902288;29;20186;-77
2022/01/20 12:03:52;;;;;;;4.47;1.10;;;;;;;;;;4920608;29;20182;-77
2022/01/20 12:06:24;;;;;;;3.80;1.30;;;;;;;;;;4921800;29;20185;-77
2022/01/20 12:08:57;;;;;;;4.60;1.00;;;;;;;;;;4921796;29;20217;-77
2022/01/20 12:11:34;;;;;;;4.37;1.30;;;;;;;;;;4921694;29;20193;-77
2022/01/20 12:14:00;;;;;;;4.30;1.30;;;;;;;;;;4921435;29;20287;-77
2022/01/20 12:16:26;;;;;;;4.17;1.03;;;;;;;;;;4921565;29;20181;-77
2022/01/20 12:18:53;;;;;;;6.23;1.40;;;;;;;;;;4905988;29;20221;-77
2022/01/20 12:21:20;;;;;;;3.30;0.90;;;;;;;;;;4921450;29;20173;-78
2022/01/20 12:23:47;;;;;;;4.20;1.27;;;;;;;;;;4921356;29;20189;-77
2022/01/20 12:26:13;;;;;;;4.40;0.90;;;;;;;;;;4938423;29;20185;-77
2022/01/20 12:28:39;;;;;;;4.17;1.13;;;;;;;;;;4905503;29;20220;-77
2022/01/20 12:31:06;;;;;;;3.17;1.00;;;;;;;;;;4921330;29;20182;-77
2022/01/20 12:33:34;;;;;;;5.57;1.30;;;;;;;;;;4905680;29;20196;-77
2022/01/20 12:36:03;;;;;;;2.93;1.10;;;;;;;;;;4921414;29;20607;-77
2022/01/20 12:38:29;;;;;;;5.80;1.20;;;;;;;;;;4920991;29;20218;-77
2022/01/20 12:41:00;;;;;;;2.53;0.70;;;;;;;;;;4921537;29;20178;-77
2022/01/20 12:43:44;;;;;;;1.13;0.50;;;;;;;;;;4905304;29;20185;-77
2022/01/20 12:46:12;;;;;;;2.07;1.00;;;;;;;;;;4921141;29;20724;-77
2022/01/20 12:48:39;;;;;;;3.97;1.10;;;;;;;;;;4920946;29;20202;-78
2022/01/20 12:51:10;;;;;;;2.90;1.20;;;;;;;;;;4905618;29;20182;-77
2022/01/20 12:53:37;;;;;;;3.90;1.23;;;;;;;;;;4920817;29;20553;-77
2022/01/20 12:56:07;;;;;;;4.33;1.20;;;;;;;;;;4921363;29;20185;-77
2022/01/20 12:58:46;;;;;;;2.03;0.87;;;;;;;;;;4905196;29;20209;-77
2022/01/20 13:01:12;;;;;;;4.97;1.70;;;;;;;;;;4920995;29;20725;-77
2022/01/20 13:03:39;;;;;;;2.23;1.20;;;;;;;;;;4904860;29;20555;-77
2022/01/20 13:06:06;;;;;;;2.10;0.90;;;;;;;;;;4905116;29;20204;-77
2022/01/20 13:08:38;;;;;;;3.37;1.23;;;;;;;;;;4920844;29;20677;-77
2022/01/20 13:11:11;;;;;;;6.47;1.23;;;;;;;;;;4920930;29;20268;-77
2022/01/20 13:13:37;;;;;;;2.33;1.10;;;;;;;;;;4904628;29;20648;-77
2022/01/20 13:16:10;;;;;;;6.23;1.33;;;;;;;;;;4920776;29;20177;-78
2022/01/20 13:18:36;;;;;;;4.83;1.30;;;;;;;;;;4920213;29;20210;-77
2022/01/20 13:21:05;;;;;;;6.83;1.60;;;;;;;;;;4904840;29;20193;-77
2022/01/20 13:23:55;;;;;;;5.23;1.60;;;;;;;;;;4920144;29;20174;-77
2022/01/20 13:26:21;;;;;;;5.10;1.30;;;;;;;;;;4920418;29;20268;-77
2022/01/20 13:28:57;;;;;;;4.17;1.10;;;;;;;;;;4920112;29;20226;-77
2022/01/20 13:31:23;;;;;;;6.57;1.50;;;;;;;;;;4920359;29;20189;-77
2022/01/20 13:33:49;;;;;;;4.17;1.40;;;;;;;;;;4920110;29;20178;-77
2022/01/20 13:36:16;;;;;;;8.57;1.60;;;;;;;;;;4904538;29;20189;-77
2022/01/20 13:38:48;;;;;;;4.00;1.90;;;;;;;;;;4904487;29;20289;-77
2022/01/20 13:41:18;;;;;;;4.30;1.77;;;;;;;;;;4905256;29;20206;-77
2022/01/20 13:46:38;;;;;;;4.37;0.93;;;;;;;;;;4923094;29;20188;-77
2022/01/20 13:49:14;;;;;;;5.10;2.10;;;;;;;;;;4937067;29;20193;-77
2022/01/20 13:51:40;;;;;;;5.93;3.60;;;;;;;;;;4904321;29;20177;-77
2022/01/20 13:54:06;;;;;;;4.40;1.20;;;;;;;;;;4919854;29;20217;-77
2022/01/20 13:56:32;;;;;;;2.87;0.80;;;;;;;;;;4904432;29;20578;-77
2022/01/20 13:59:09;;;;;;;5.57;1.30;;;;;;;;;;4919890;29;20637;-77
2022/01/20 14:01:35;;;;;;;3.50;1.90;;;;;;;;;;4904058;29;20182;-77
2022/01/20 14:04:01;;;;;;;3.07;1.20;;;;;;;;;;4903940;29;20736;-77
2022/01/20 14:06:27;;;;;;;1.87;1.10;;;;;;;;;;4919608;29;20213;-77
2022/01/20 14:08:53;;;;;;;2.03;0.97;;;;;;;;;;4919571;29;20204;-77
2022/01/20 14:11:20;;;;;;;2.53;1.70;;;;;;;;;;4903852;29;20190;-77
2022/01/20 14:13:46;;;;;;;6.30;3.83;;;;;;;;;;4903901;29;20288;-77
2022/01/20 14:16:13;;;;;;;2.40;1.20;;;;;;;;;;4903960;29;20186;-77
2022/01/20 14:18:46;;;;;;;4.63;1.60;;;;;;;;;;4919437;29;20252;-77
2022/01/20 14:21:13;;;;;;;4.13;1.70;;;;;;;;;;4904592;29;20182;-77
2022/01/20 14:23:40;;;;;;;4.93;2.20;;;;;;;;;;4919373;29;20178;-77
2022/01/20 14:26:08;;;;;;;8.27;4.17;;;;;;;;;;4918499;29;20238;-77
2022/01/20 14:28:34;;;;;;;4.93;1.33;;;;;;;;;;4919189;29;20220;-77
2022/01/20 14:31:00;;;;;;;4.20;1.70;;;;;;;;;;4919395;29;20181;-78
2022/01/20 14:33:26;;;;;;;3.53;1.33;;;;;;;;;;4919113;29;20185;-77
2022/01/20 14:35:52;;;;;;;3.63;1.20;;;;;;;;;;4918950;29;20232;-77
2022/01/20 14:38:18;;;;;;;4.20;1.53;;;;;;;;;;4903537;29;20685;-77
2022/01/20 14:40:44;;;;;;;3.13;1.33;;;;;;;;;;4918888;29;20559;-77
2022/01/20 14:43:10;;;;;;;7.47;2.23;;;;;;;;;;4903446;29;20182;-77
2022/01/20 14:45:37;;;;;;;5.00;1.70;;;;;;;;;;4918810;29;20228;-77
2022/01/20 14:48:03;;;;;;;4.70;1.70;;;;;;;;;;4903045;29;20182;-77
2022/01/20 14:50:29;;;;;;;4.97;1.70;;;;;;;;;;4918807;29;20268;-78
2022/01/20 14:52:56;;;;;;;5.47;2.30;;;;;;;;;;4918871;29;20273;-78
2022/01/20 14:55:22;;;;;;;4.33;1.60;;;;;;;;;;4918535;29;20181;-77
2022/01/20 14:57:48;;;;;;;2.80;1.30;;;;;;;;;;4918636;29;20186;-77
2022/01/20 15:00:15;;;;;;;3.67;1.30;;;;;;;;;;4935562;29;20209;-77
2022/01/20 15:02:47;;;;;;;3.77;2.07;;;;;;;;;;4918784;29;20184;-77
2022/01/20 15:05:14;;;;;;;5.77;1.70;;;;;;;;;;4935498;29;20174;-78
2022/01/20 15:07:40;;;;;;;5.57;1.43;;;;;;;;;;4918706;29;20209;-76
2022/01/20 15:10:07;;;;;;;3.90;1.63;;;;;;;;;;4918478;29;20236;-76
2022/01/20 15:12:36;;;;;;;8.33;2.00;;;;;;;;;;4920259;29;20178;-80
2022/01/20 15:15:02;;;;;;;3.20;1.40;;;;;;;;;;4918573;29;20182;-79
2022/01/20 15:17:28;;;;;;;3.10;1.43;;;;;;;;;;4919299;29;20182;-79
2022/01/20 15:19:54;;;;;;;3.50;1.57;;;;;;;;;;4906563;29;20643;-79
2022/01/20 15:22:20;;;;;;;2.30;1.27;;;;;;;;;;4905024;29;20182;-79
2022/01/20 15:24:46;;;;;;;4.03;1.20;;;;;;;;;;4905582;29;20249;-79
2022/01/20 15:27:12;;;;;;;3.63;1.77;;;;;;;;;;4906267;29;20178;-79
2022/01/20 15:29:38;;;;;;;5.07;1.87;;;;;;;;;;4904996;29;20272;-78
2022/01/20 15:32:04;;;;;;;3.30;1.30;;;;;;;;;;4919057;29;20651;-78
2022/01/20 15:34:30;;;;;;;5.70;1.57;;;;;;;;;;4919446;29;20177;-78
2022/01/20 15:36:56;;;;;;;4.93;1.60;;;;;;;;;;4903903;29;20186;-78
2022/01/20 15:39:22;;;;;;;3.63;1.57;;;;;;;;;;4904195;29;20582;-78
2022/01/20 15:41:49;;;;;;;6.57;1.57;;;;;;;;;;4919593;29;20185;-78
2022/01/20 15:44:16;;;;;;;4.50;2.07;;;;;;;;;;4919865;29;20181;-78
2022/01/20 15:46:42;;;;;;;3.23;1.60;;;;;;;;;;4920288;29;20181;-78